Time;durP1;ratioP1;P1;durP2;ratioP2;P2;SDS_P1;SDS_P2;PMS_P1;PMS_P2;Temp;Humidity;BMP_temperature;BMP_pressure;BME280_temperature;BME280_humidity;BME280_pressure;Samples;Min_cycle;Max_cycle;Signal;HPM_P1;HPM_P2
2023/04/25 00:00:06;;;;;;;3.22;2.80;;;8.50;99.90;;;7.49;100.00;96742.09;5010970;28;20800;-75
2023/04/25 00:02:34;;;;;;;3.28;2.80;;;8.50;99.90;;;7.48;100.00;96735.22;5011277;28;20405;-75
2023/04/25 00:05:01;;;;;;;5.40;2.97;;;8.50;99.90;;;7.46;100.00;96742.56;5009615;28;20413;-75
2023/04/25 00:07:27;;;;;;;4.30;2.97;;;8.40;99.90;;;7.41;100.00;96732.78;5009806;28;20412;-75
2023/04/25 00:09:53;;;;;;;4.25;2.70;;;8.50;99.90;;;7.37;100.00;96735.09;5011020;28;20921;-75
2023/04/25 00:12:19;;;;;;;4.22;2.90;;;8.30;99.90;;;7.37;100.00;96732.47;5010898;28;20409;-75
2023/04/25 00:14:46;;;;;;;5.47;3.20;;;8.40;99.90;;;7.37;100.00;96726.41;5010882;28;20432;-75
2023/04/25 00:17:13;;;;;;;4.00;2.85;;;8.40;99.90;;;7.36;100.00;96728.28;5010911;28;20420;-75
2023/04/25 00:19:39;;;;;;;5.10;2.90;;;8.40;99.90;;;7.32;100.00;96724.53;5010789;28;20422;-75
2023/04/25 00:22:05;;;;;;;2.88;2.50;;;8.30;99.90;;;7.33;100.00;96728.75;5010766;28;20891;-75
2023/04/25 00:24:31;;;;;;;3.80;3.30;;;8.30;99.90;;;7.33;100.00;96731.38;5010665;28;20401;-75
2023/04/25 00:26:57;;;;;;;5.70;3.23;;;8.30;99.90;;;7.33;100.00;96725.31;5010817;28;20960;-75
2023/04/25 00:29:23;;;;;;;7.25;3.40;;;8.40;99.90;;;7.32;100.00;96727.16;5010678;28;20409;-75
2023/04/25 00:31:49;;;;;;;4.78;3.33;;;8.30;99.90;;;7.28;100.00;96723.44;5010650;28;20412;-75
2023/04/25 00:34:16;;;;;;;3.45;2.80;;;8.30;99.90;;;7.27;100.00;96724.47;5010336;28;20487;-75
2023/04/25 00:36:42;;;;;;;4.20;3.28;;;8.30;99.90;;;7.24;100.00;96716.28;5010466;28;20420;-75
2023/04/25 00:39:08;;;;;;;4.70;3.15;;;8.30;99.90;;;7.23;100.00;96717.31;5009963;28;20412;-75
2023/04/25 00:41:34;;;;;;;4.77;3.40;;;8.30;99.90;;;7.20;100.00;96704.66;5010467;28;20463;-75
2023/04/25 00:44:01;;;;;;;3.63;3.30;;;8.20;99.90;;;7.18;100.00;96715.41;5010584;28;20831;-75
2023/04/25 00:46:27;;;;;;;7.40;3.30;;;8.20;99.90;;;7.15;100.00;96712.47;5010659;28;20801;-75
2023/04/25 00:48:53;;;;;;;5.10;3.30;;;8.10;99.90;;;7.14;100.00;96713.53;5012335;28;20458;-75
2023/04/25 00:51:21;;;;;;;4.60;2.90;;;8.20;99.90;;;7.16;100.00;96708.81;5014526;28;20404;-75
2023/04/25 00:53:49;;;;;;;4.85;3.30;;;8.10;99.90;;;7.17;100.00;96710.41;5014565;28;20463;-75
2023/04/25 00:56:15;;;;;;;6.65;3.50;;;8.20;99.90;;;7.13;100.00;96709.31;5014346;28;20416;-75
2023/04/25 00:58:42;;;;;;;4.75;3.20;;;8.10;99.90;;;7.10;100.00;96713.22;5014703;28;20742;-75
2023/04/25 01:01:09;;;;;;;3.65;3.17;;;8.10;99.90;;;7.07;100.00;96699.78;5014303;28;20409;-75
2023/04/25 01:03:42;;;;;;;4.97;3.50;;;8.10;99.90;;;7.09;100.00;96702.94;5014519;28;20971;-75
2023/04/25 01:06:10;;;;;;;3.92;3.25;;;8.10;99.90;;;7.10;100.00;96694.00;5013123;28;20404;-75
2023/04/25 01:08:39;;;;;;;5.50;3.30;;;8.10;99.90;;;7.11;100.00;96692.97;5014409;28;20739;-75
2023/04/25 01:11:05;;;;;;;4.93;3.38;;;8.10;99.90;;;7.16;100.00;96696.44;5014143;28;20408;-75
2023/04/25 01:13:31;;;;;;;5.07;3.25;;;8.20;99.90;;;7.16;100.00;96698.28;5014332;28;20462;-75
2023/04/25 01:15:58;;;;;;;4.53;3.35;;;8.20;99.90;;;7.18;100.00;96702.25;5013993;28;20847;-75
2023/04/25 01:18:24;;;;;;;3.95;3.38;;;8.20;99.90;;;7.20;100.00;96704.66;5013910;28;20494;-75
2023/04/25 01:20:51;;;;;;;5.00;3.60;;;8.20;99.90;;;7.20;100.00;96696.75;5013966;28;20454;-75
2023/04/25 01:23:20;;;;;;;4.43;3.50;;;8.20;99.90;;;7.18;100.00;96696.19;5013967;28;20405;-75
2023/04/25 01:25:46;;;;;;;4.70;3.88;;;8.20;99.90;;;7.15;100.00;96686.16;5013880;28;20926;-77
2023/04/25 01:28:12;;;;;;;5.50;3.70;;;8.20;99.90;;;7.14;100.00;96693.25;5015901;28;20416;-77
2023/04/25 01:30:39;;;;;;;5.72;3.70;;;8.20;99.90;;;7.11;100.00;96687.69;5014996;28;20412;-78
2023/04/25 01:33:06;;;;;;;6.03;3.33;;;8.10;99.90;;;7.04;100.00;96685.25;5016417;28;20416;-77
2023/04/25 01:35:32;;;;;;;5.00;3.42;;;8.10;99.90;;;6.97;100.00;96690.72;5018754;28;20412;-78
2023/04/25 01:37:59;;;;;;;4.15;3.33;;;8.00;99.90;;;6.91;100.00;96680.38;5018072;28;20509;-78
2023/04/25 01:40:28;;;;;;;5.43;3.60;;;7.90;99.90;;;6.87;100.00;96695.03;5019758;28;20404;-79
2023/04/25 01:42:54;;;;;;;3.95;3.55;;;7.90;99.90;;;6.85;100.00;96689.22;5031096;28;20401;-77
2023/04/25 01:45:20;;;;;;;4.45;4.00;;;7.80;99.90;;;6.86;100.00;96688.97;5015186;28;20874;-77
2023/04/25 01:47:48;;;;;;;4.97;3.30;;;7.90;99.90;;;6.86;100.00;96691.59;5013785;28;20405;-77
2023/04/25 01:50:17;;;;;;;5.47;3.83;;;7.80;99.90;;;6.88;100.00;96691.38;5013485;28;20405;-77
2023/04/25 01:52:43;;;;;;;6.25;3.85;;;7.90;99.90;;;6.84;100.00;96688.41;5016337;28;20399;-77
2023/04/25 01:55:09;;;;;;;4.50;4.00;;;7.90;99.90;;;6.86;100.00;96682.91;5017385;28;20428;-78
2023/04/25 01:57:37;;;;;;;6.63;4.22;;;7.90;99.90;;;6.85;100.00;96683.94;5022919;28;20462;-78
2023/04/25 02:00:06;;;;;;;6.60;3.80;;;7.90;99.90;;;6.84;100.00;96683.16;5036594;28;20440;-78
2023/04/25 02:02:32;;;;;;;5.25;3.50;;;7.90;99.90;;;6.82;100.00;96679.19;5016319;28;20425;-78
2023/04/25 02:04:59;;;;;;;5.93;4.10;;;7.90;99.90;;;6.82;100.00;96684.47;5018420;28;20906;-77
2023/04/25 02:07:26;;;;;;;4.10;3.53;;;7.80;99.90;;;6.82;100.00;96685.25;5015724;28;20416;-77
2023/04/25 02:09:52;;;;;;;5.05;4.07;;;7.90;99.90;;;6.83;100.00;96681.59;5009913;28;20783;-77
2023/04/25 02:12:18;;;;;;;7.97;3.95;;;7.90;99.90;;;6.81;100.00;96685.50;5014598;28;20409;-77
2023/04/25 02:14:45;;;;;;;7.63;4.10;;;7.80;99.90;;;6.77;100.00;96679.91;5014532;28;20420;-77
2023/04/25 02:17:12;;;;;;;5.72;3.72;;;7.80;99.90;;;6.73;100.00;96681.44;5014864;28;20420;-77
2023/04/25 02:19:38;;;;;;;7.13;3.78;;;7.80;99.90;;;6.71;100.00;96683.53;5015505;28;20397;-77
2023/04/25 02:22:04;;;;;;;5.60;3.80;;;7.70;99.90;;;6.68;100.00;96678.75;5015399;28;20401;-78
2023/04/25 02:24:31;;;;;;;4.65;3.80;;;7.70;99.90;;;6.66;100.00;96678.19;5016170;28;20491;-78
2023/04/25 02:26:57;;;;;;;5.10;3.80;;;7.70;99.90;;;6.63;100.00;96676.06;5017617;28;20407;-78
2023/04/25 02:29:23;;;;;;;7.88;4.07;;;7.70;99.90;;;6.60;100.00;96668.66;5017170;28;20405;-77
2023/04/25 02:31:50;;;;;;;4.60;3.90;;;7.70;99.90;;;6.60;100.00;96666.84;5016459;28;20411;-79
2023/04/25 02:34:16;;;;;;;7.70;4.35;;;7.70;99.90;;;6.58;100.00;96666.28;5017034;28;20890;-77
2023/04/25 02:36:42;;;;;;;5.35;4.57;;;7.60;99.90;;;6.57;100.00;96669.94;5016678;28;20457;-78
2023/04/25 02:39:08;;;;;;;8.00;4.75;;;7.70;99.90;;;6.58;100.00;96668.09;5018819;28;20680;-78
2023/04/25 02:41:34;;;;;;;7.25;4.43;;;7.60;99.90;;;6.57;100.00;96666.50;5019096;28;20409;-78
2023/04/25 02:44:00;;;;;;;7.43;4.32;;;7.60;99.90;;;6.54;100.00;96665.16;5019327;28;20440;-77
2023/04/25 02:46:26;;;;;;;6.88;4.00;;;7.60;99.90;;;6.52;100.00;96654.09;5019156;28;20389;-78
2023/04/25 02:48:53;;;;;;;5.80;3.95;;;7.60;99.90;;;6.50;100.00;96660.63;5019044;28;20412;-78
2023/04/25 02:51:19;;;;;;;5.97;4.15;;;7.60;99.90;;;6.45;100.00;96656.09;5017490;28;20401;-78
2023/04/25 02:53:45;;;;;;;6.47;4.30;;;7.50;99.90;;;6.41;100.00;96654.19;5015913;28;20511;-77
2023/04/25 02:56:11;;;;;;;6.30;4.72;;;7.50;99.90;;;6.37;100.00;96653.88;5016024;28;20487;-78
2023/04/25 02:58:37;;;;;;;6.57;4.25;;;7.40;99.90;;;6.31;100.00;96654.06;5015329;28;20468;-78
2023/04/25 03:01:03;;;;;;;7.38;4.50;;;7.40;99.90;;;6.27;100.00;96656.38;5014638;28;20889;-78
2023/04/25 03:03:28;;;;;;;6.63;4.10;;;7.30;99.90;;;6.25;100.00;96653.19;5015911;28;20490;-78
2023/04/25 03:05:56;;;;;;;5.90;4.25;;;7.30;99.90;;;6.26;100.00;96660.03;5014401;28;20878;-78
2023/04/25 03:08:22;;;;;;;5.22;4.05;;;7.30;99.90;;;6.28;100.00;96657.97;5015695;28;20405;-78
2023/04/25 03:10:50;;;;;;;7.65;4.55;;;7.30;99.90;;;6.30;100.00;96655.91;5020033;28;20476;-78
2023/04/25 03:13:15;;;;;;;6.47;4.32;;;7.40;99.90;;;6.31;100.00;96654.06;5019221;28;20471;-78
2023/04/25 03:15:41;;;;;;;5.47;4.38;;;7.40;99.90;;;6.30;100.00;96653.28;5018700;28;20484;-78
2023/04/25 03:18:07;;;;;;;7.43;4.10;;;7.40;99.90;;;6.29;100.00;96650.88;5017898;28;20405;-78
2023/04/25 03:20:33;;;;;;;5.20;4.18;;;7.30;99.90;;;6.28;100.00;96638.78;5016718;28;20452;-78
2023/04/25 03:23:00;;;;;;;5.72;3.83;;;7.40;99.90;;;6.26;100.00;96639.00;5016592;28;20405;-78
2023/04/25 03:25:26;;;;;;;5.95;4.00;;;7.30;99.90;;;6.27;100.00;96643.22;5016163;28;20866;-78
2023/04/25 03:27:52;;;;;;;8.77;4.90;;;7.30;99.90;;;6.28;100.00;96642.19;5031729;28;20423;-77
2023/04/25 03:30:18;;;;;;;6.00;4.35;;;7.40;99.90;;;6.31;100.00;96640.94;5015864;28;20409;-78
2023/04/25 03:32:44;;;;;;;6.97;4.70;;;7.40;99.90;;;6.29;100.00;96643.00;5016467;28;20444;-78
2023/04/25 03:35:10;;;;;;;4.50;4.03;;;7.40;99.90;;;6.30;100.00;96647.22;5015715;28;20932;-78
2023/04/25 03:37:36;;;;;;;5.82;4.03;;;7.40;99.90;;;6.27;100.00;96648.47;5015653;28;20428;-78
2023/04/25 03:40:04;;;;;;;5.57;4.38;;;7.30;99.90;;;6.25;100.00;96653.19;5015866;28;20424;-77
2023/04/25 03:42:30;;;;;;;8.45;4.45;;;7.30;99.90;;;6.25;100.00;96653.19;5016196;28;20401;-78
2023/04/25 03:44:56;;;;;;;4.28;3.88;;;7.30;99.90;;;6.26;100.00;96646.88;5016270;28;20977;-78
2023/04/25 03:47:22;;;;;;;5.22;4.15;;;7.30;99.90;;;6.27;100.00;96653.75;5016951;28;20756;-78
2023/04/25 03:49:49;;;;;;;7.00;4.38;;;7.30;99.90;;;6.33;100.00;96646.72;5031224;28;20405;-78
2023/04/25 03:52:15;;;;;;;6.50;4.13;;;7.40;99.90;;;6.36;100.00;96656.75;5031064;28;20466;-78
2023/04/25 03:54:41;;;;;;;5.72;4.03;;;7.40;99.90;;;6.38;100.00;96642.34;5015510;28;20409;-79
2023/04/25 03:57:08;;;;;;;4.72;4.13;;;7.40;99.90;;;6.35;100.00;96644.66;5015886;28;20519;-78
2023/04/25 03:59:34;;;;;;;4.97;4.25;;;7.40;99.90;;;6.32;100.00;96645.91;5015303;28;20472;-78
2023/04/25 04:02:00;;;;;;;6.25;4.43;;;7.40;99.90;;;6.28;100.00;96644.03;5015268;28;20845;-78
2023/04/25 04:04:26;;;;;;;5.65;3.53;;;7.40;99.90;;;6.26;100.00;96639.00;5016234;28;20410;-78
2023/04/25 04:06:52;;;;;;;8.70;4.37;;;7.30;99.90;;;6.20;100.00;96640.78;5016474;28;20447;-78
2023/04/25 04:09:19;;;;;;;5.28;3.97;;;7.30;99.90;;;6.18;100.00;96644.66;5031446;28;20419;-77
2023/04/25 04:11:45;;;;;;;5.43;4.30;;;7.30;99.90;;;6.12;100.00;96643.00;5015542;28;20411;-77
2023/04/25 04:14:15;;;;;;;8.00;4.53;;;7.20;99.90;;;6.10;100.00;96652.94;5015398;28;20408;-79
2023/04/25 04:16:41;;;;;;;6.57;4.57;;;7.20;99.90;;;6.07;100.00;96649.00;5014663;28;20451;-77
2023/04/25 04:19:07;;;;;;;10.05;6.05;;;7.10;99.90;;;6.07;100.00;96646.38;5011134;28;20752;-77
2023/04/25 04:21:33;;;;;;;5.82;4.82;;;7.10;99.90;;;6.06;100.00;96649.22;5011286;28;20492;-78
2023/04/25 04:24:00;;;;;;;11.27;5.78;;;7.20;99.90;;;6.05;100.00;96660.78;5010974;28;20923;-77
2023/04/25 04:26:26;;;;;;;9.43;5.40;;;7.10;99.90;;;6.03;100.00;96647.06;5011571;28;20397;-77
2023/04/25 04:28:54;;;;;;;10.35;5.78;;;7.10;99.90;;;6.02;100.00;96651.53;5010943;28;20415;-76
2023/04/25 04:31:21;;;;;;;8.05;5.05;;;7.10;99.90;;;6.06;100.00;96646.59;5026036;28;20708;-76
2023/04/25 04:33:47;;;;;;;6.82;5.57;;;7.10;99.90;;;6.11;100.00;96654.53;5025907;28;20404;-76
2023/04/25 04:36:13;;;;;;;8.80;5.40;;;7.10;99.90;;;6.10;100.00;96663.47;5025778;28;20444;-76
2023/04/25 04:38:40;;;;;;;7.32;4.90;;;7.10;99.90;;;6.15;100.00;96664.34;5010701;28;20867;-76
2023/04/25 04:41:07;;;;;;;9.98;5.70;;;7.20;99.90;;;6.20;100.00;96663.63;5025650;28;20443;-76
2023/04/25 04:43:33;;;;;;;10.52;5.45;;;7.20;99.90;;;6.21;100.00;96659.97;5010214;28;20495;-76
2023/04/25 04:46:00;;;;;;;8.50;5.57;;;7.30;99.90;;;6.25;100.00;96668.94;5023562;28;21020;-76
2023/04/25 04:48:28;;;;;;;7.38;5.35;;;7.30;99.90;;;6.30;100.00;96666.41;5008947;28;20491;-76
2023/04/25 04:50:53;;;;;;;5.85;4.72;;;7.40;99.90;;;6.36;100.00;96664.66;5003073;28;20406;-76
2023/04/25 04:53:19;;;;;;;7.97;5.28;;;7.40;99.90;;;6.39;100.00;96674.69;4990816;28;20906;-76
2023/04/25 04:55:46;;;;;;;10.63;5.40;;;7.40;99.90;;;6.48;100.00;96681.91;4990528;28;20403;-76
2023/04/25 04:58:11;;;;;;;8.20;5.13;;;7.50;99.90;;;6.52;100.00;96683.03;4990927;28;20407;-76
2023/04/25 05:00:38;;;;;;;6.38;4.70;;;7.60;99.90;;;6.56;100.00;96685.94;4990742;28;20414;-76
2023/04/25 05:03:05;;;;;;;10.10;5.38;;;7.60;99.90;;;6.66;100.00;96690.56;4990920;28;20406;-76
2023/04/25 05:05:32;;;;;;;6.10;5.17;;;7.60;99.90;;;6.67;100.00;96684.25;4990557;28;20543;-76
2023/04/25 05:07:58;;;;;;;8.77;4.90;;;7.70;99.90;;;6.69;100.00;96688.22;4990866;28;20438;-76
2023/04/25 05:10:25;;;;;;;6.97;4.90;;;7.70;99.90;;;6.73;100.00;96689.34;4990575;28;20592;-76
2023/04/25 05:12:51;;;;;;;6.80;4.50;;;7.70;99.90;;;6.84;100.00;96687.66;4990665;28;20409;-76
2023/04/25 05:15:17;;;;;;;10.55;5.35;;;7.80;99.90;;;6.85;100.00;96691.84;4989348;28;20450;-76
2023/04/25 05:17:43;;;;;;;7.85;5.00;;;7.90;99.90;;;6.95;100.00;96692.78;4998949;28;20424;-76
2023/04/25 05:20:10;;;;;;;6.97;5.13;;;8.00;99.90;;;7.03;100.00;96685.50;5010314;28;20498;-76
2023/04/25 05:22:37;;;;;;;8.18;5.10;;;8.00;99.90;;;7.11;100.00;96691.13;5010245;28;20408;-76
2023/04/25 05:25:03;;;;;;;6.57;5.28;;;8.10;99.90;;;7.18;100.00;96698.84;5010113;28;20480;-76
2023/04/25 05:27:29;;;;;;;8.52;5.40;;;8.10;99.90;;;7.24;100.00;96696.00;5010205;28;20401;-76
2023/04/25 05:29:55;;;;;;;8.90;5.37;;;8.20;99.90;;;7.21;100.00;96699.16;5009854;28;20427;-76
2023/04/25 05:32:21;;;;;;;9.98;5.20;;;8.20;99.90;;;7.26;100.00;96693.94;5009493;28;20978;-76
2023/04/25 05:34:47;;;;;;;9.02;5.75;;;8.20;99.90;;;7.32;100.00;96694.78;5016070;28;20436;-76
2023/04/25 05:37:13;;;;;;;9.52;5.88;;;8.30;99.90;;;7.33;100.00;96691.91;5010485;28;20918;-76
2023/04/25 05:39:40;;;;;;;7.32;5.85;;;8.40;99.90;;;7.45;100.00;96699.66;5019468;28;20411;-76
2023/04/25 05:42:06;;;;;;;8.32;5.82;;;8.40;99.90;;;7.49;100.00;96703.41;5041478;28;20409;-76
2023/04/25 05:44:32;;;;;;;7.38;5.68;;;8.40;99.90;;;7.51;100.00;96696.06;5023552;28;20407;-76
2023/04/25 05:46:58;;;;;;;7.80;5.35;;;8.40;99.90;;;7.54;100.00;96700.00;5022214;28;20409;-76
2023/04/25 05:49:24;;;;;;;6.78;5.20;;;8.50;99.90;;;7.57;100.00;96700.31;5030237;28;20404;-76
2023/04/25 05:51:50;;;;;;;8.32;5.50;;;8.50;99.90;;;7.55;100.00;96707.66;5028448;28;20458;-76
2023/04/25 05:54:15;;;;;;;9.93;5.88;;;8.50;99.90;;;7.55;100.00;96698.97;5021190;28;20915;-76
2023/04/25 05:56:43;;;;;;;5.67;4.50;;;8.50;99.90;;;7.35;100.00;96689.81;5021131;28;20503;-76
2023/04/25 05:59:09;;;;;;;6.32;5.05;;;8.30;99.90;;;7.33;100.00;96705.06;5015622;28;20772;-76
2023/04/25 06:01:34;;;;;;;6.78;5.10;;;8.30;99.90;;;7.33;100.00;96694.53;5014553;28;20416;-76
2023/04/25 06:04:01;;;;;;;6.63;5.17;;;8.30;99.90;;;7.21;100.00;96699.16;5013135;28;20414;-76
2023/04/25 06:06:27;;;;;;;6.10;5.15;;;8.20;99.90;;;7.24;100.00;96703.91;5011886;28;20413;-76
2023/04/25 06:08:53;;;;;;;8.38;5.18;;;8.20;99.90;;;7.20;100.00;96704.66;5014248;28;20450;-76
2023/04/25 06:11:20;;;;;;;6.97;5.55;;;8.20;99.90;;;7.20;100.00;96704.66;5009221;28;20407;-76
2023/04/25 06:13:47;;;;;;;5.85;4.63;;;8.20;99.90;;;7.19;100.00;96698.59;5007838;28;20479;-76
2023/04/25 06:16:13;;;;;;;5.82;4.90;;;8.10;99.90;;;7.18;100.00;96701.47;5012783;28;20425;-76
2023/04/25 06:18:39;;;;;;;8.15;5.13;;;8.10;99.90;;;7.20;100.00;96696.75;5013283;28;20811;-76
2023/04/25 06:21:05;;;;;;;6.18;4.47;;;8.20;99.90;;;7.18;100.00;96691.72;5013034;28;20487;-76
2023/04/25 06:23:31;;;;;;;6.10;4.75;;;8.20;99.90;;;7.16;100.00;96687.75;5012664;28;20405;-76
2023/04/25 06:25:57;;;;;;;6.53;4.30;;;8.10;99.90;;;7.16;100.00;96690.38;5013346;28;20400;-76
2023/04/25 06:28:24;;;;;;;5.72;4.32;;;8.10;99.90;;;7.20;100.00;96694.13;5012030;28;20447;-76
2023/04/25 06:30:51;;;;;;;7.67;5.53;;;8.20;99.90;;;7.24;100.00;96695.22;5012990;28;20953;-76
2023/04/25 06:33:17;;;;;;;8.13;5.72;;;8.20;99.90;;;7.22;100.00;96694.66;5013092;28;20412;-76
2023/04/25 06:35:43;;;;;;;8.10;5.78;;;8.20;99.90;;;7.16;100.00;96688.53;5013215;28;20401;-76
2023/04/25 06:38:09;;;;;;;8.90;6.23;;;8.10;99.90;;;7.05;100.00;96688.69;5012511;28;20515;-76
2023/04/25 06:40:35;;;;;;;9.75;6.97;;;8.00;99.90;;;6.98;100.00;96694.94;5013030;28;21017;-76
2023/04/25 06:43:01;;;;;;;14.02;7.65;;;8.00;99.90;;;6.90;100.00;96692.72;5013079;28;20405;-76
2023/04/25 06:45:26;;;;;;;13.30;7.40;;;7.90;99.90;;;6.86;100.00;96696.06;5011662;28;20507;-76
2023/04/25 06:47:54;;;;;;;12.32;8.15;;;7.80;99.90;;;6.82;100.00;96690.53;5012812;28;20400;-76
2023/04/25 06:50:20;;;;;;;15.05;8.23;;;7.80;99.90;;;6.76;100.00;96690.69;5012896;28;20451;-76
2023/04/25 06:52:46;;;;;;;14.68;7.88;;;7.70;99.90;;;6.75;100.00;96689.91;5011602;28;20500;-75
2023/04/25 06:55:11;;;;;;;12.43;7.68;;;7.70;99.90;;;6.79;100.00;96696.25;5016577;28;20417;-75
2023/04/25 06:57:37;;;;;;;17.45;9.23;;;7.80;99.90;;;6.81;100.00;96691.56;5012812;28;20851;-75
2023/04/25 07:00:08;;;;;;;19.20;8.80;;;7.80;99.90;;;6.87;100.00;96689.78;5012573;28;20412;-76
2023/04/25 07:02:34;;;;;;;18.20;9.40;;;7.90;99.90;;;6.87;100.00;96693.19;5009032;28;20507;-76
2023/04/25 07:05:03;;;;;;;17.42;9.07;;;7.90;99.90;;;6.85;100.00;96687.38;5009146;28;20497;-76
2023/04/25 07:07:30;;;;;;;17.00;8.73;;;7.80;99.90;;;6.85;100.00;96692.66;5015248;28;20399;-76
2023/04/25 07:09:56;;;;;;;17.13;9.05;;;7.80;99.90;;;6.81;100.00;96691.56;5010824;28;20437;-76
2023/04/25 07:12:22;;;;;;;19.90;9.77;;;7.80;99.90;;;6.79;100.00;96696.25;5025883;28;20853;-76
2023/04/25 07:14:48;;;;;;;15.13;8.60;;;7.80;99.90;;;6.83;100.00;96701.84;5013461;28;21025;-76
2023/04/25 07:17:15;;;;;;;18.77;9.90;;;7.80;99.90;;;6.81;100.00;96703.91;5024703;28;20428;-76
2023/04/25 07:19:41;;;;;;;21.30;10.05;;;7.80;99.90;;;6.80;100.00;96708.38;5013554;28;20405;-76
2023/04/25 07:22:08;;;;;;;16.65;9.00;;;7.80;99.90;;;6.85;100.00;96702.38;5012374;28;20404;-76
2023/04/25 07:24:34;;;;;;;21.90;10.73;;;7.80;99.90;;;6.90;100.00;96705.88;5012291;28;20415;-76
2023/04/25 07:27:01;;;;;;;21.95;10.52;;;7.90;99.90;;;6.98;100.00;96702.81;5012501;28;20397;-76
2023/04/25 07:29:29;;;;;;;20.65;11.20;;;8.00;99.90;;;7.06;100.00;96711.34;5012482;28;20433;-77
2023/04/25 07:31:55;;;;;;;23.75;11.23;;;8.00;99.90;;;7.12;100.00;96719.03;5012862;28;20408;-77
2023/04/25 07:34:21;;;;;;;19.70;10.85;;;8.10;99.90;;;7.07;100.00;96720.81;5014802;28;20417;-77
2023/04/25 07:36:47;;;;;;;20.15;10.00;;;8.10;99.90;;;6.99;100.00;96719.41;5014480;28;20424;-77
2023/04/25 07:39:14;;;;;;;23.45;11.43;;;8.00;99.90;;;6.91;100.00;96722.47;5015716;28;20420;-77
2023/04/25 07:41:40;;;;;;;23.67;11.27;;;7.90;99.90;;;6.82;100.00;96724.72;5597588;23;20504;-77
2023/04/25 07:44:06;;;;;;;26.60;12.48;;;7.80;99.90;;;6.79;100.00;96732.28;5021981;28;20471;-79
2023/04/25 07:47:28;;;;;;;33.83;13.70;;;7.80;99.90;;;6.77;100.00;96726.47;5018035;28;20409;-78
2023/04/25 07:52:39;;;;;;;29.10;13.68;;;7.70;99.90;;;6.63;100.00;96738.38;5473455;23;20411;-78
2023/04/25 07:55:07;;;;;;;37.22;14.98;;;7.70;99.90;;;6.61;100.00;96739.41;5038277;28;20406;-79
2023/04/25 07:57:33;;;;;;;37.17;14.20;;;7.60;99.90;;;6.57;100.00;96738.28;5040634;28;20415;-78
2023/04/25 07:59:59;;;;;;;41.58;16.33;;;7.60;99.90;;;6.59;100.00;96736.22;5020352;28;20761;-78
2023/04/25 08:02:28;;;;;;;31.70;14.52;;;7.60;99.90;;;6.54;100.00;96744.03;5041597;28;20419;-78
2023/04/25 08:04:53;;;;;;;44.22;15.35;;;7.60;99.90;;;6.57;100.00;96748.81;5036241;28;20399;-77
2023/04/25 08:07:19;;;;;;;39.83;14.20;;;7.60;99.90;;;6.64;100.00;96751.28;5023675;28;20416;-79
2023/04/25 08:09:45;;;;;;;51.53;17.45;;;7.60;99.90;;;6.64;100.00;96750.47;5018687;28;20424;-79
2023/04/25 08:12:12;;;;;;;52.60;15.93;;;7.60;99.90;;;6.59;100.00;96754.63;5015227;28;20405;-79
2023/04/25 08:14:39;;;;;;;49.03;15.93;;;7.60;99.90;;;6.59;100.00;96759.09;5015820;28;20471;-78
2023/04/25 08:17:05;;;;;;;34.08;14.02;;;7.60;99.90;;;6.70;100.00;96760.81;5017013;28;20429;-78
2023/04/25 08:19:31;;;;;;;44.53;14.80;;;7.70;99.90;;;6.73;100.00;96762.19;5016193;28;20412;-79
2023/04/25 08:21:57;;;;;;;61.60;18.83;;;7.70;99.90;;;6.71;100.00;96767.69;5015598;28;20543;-79
2023/04/25 08:24:23;;;;;;;49.83;16.20;;;7.70;99.90;;;6.70;100.00;96773.19;5017290;28;20491;-79
2023/04/25 08:26:49;;;;;;;53.22;16.90;;;7.70;99.90;;;6.65;100.00;96770.47;5021489;28;20484;-79
2023/04/25 08:29:16;;;;;;;63.17;18.30;;;7.60;99.90;;;6.61;100.00;96770.94;5018957;28;20459;-79
2023/04/25 08:31:44;;;;;;;62.70;18.45;;;7.60;99.90;;;6.59;100.00;96780.13;5019585;28;20408;-79
2023/04/25 08:34:10;;;;;;;56.03;16.73;;;7.60;99.90;;;6.54;100.00;96785.31;5019086;28;20415;-79
2023/04/25 08:36:36;;;;;;;52.88;18.05;;;7.50;99.90;;;6.59;100.00;96788.81;5019439;28;20413;-79
2023/04/25 08:39:03;;;;;;;64.90;18.73;;;7.60;99.90;;;6.68;100.00;96793.69;5032426;28;20472;-79
2023/04/25 08:41:29;;;;;;;51.53;18.05;;;7.70;99.90;;;6.77;100.00;96792.22;5028161;28;20405;-79
2023/04/25 08:43:59;;;;;;;67.93;18.75;;;7.80;99.90;;;6.71;100.00;96793.97;5004228;28;20421;-79
2023/04/25 08:46:28;;;;;;;55.45;17.60;;;7.70;99.90;;;6.75;100.00;96794.31;5026954;28;20457;-79
2023/04/25 08:49:01;;;;;;;57.30;17.90;;;7.70;99.90;;;6.68;100.00;96797.09;5020524;28;20412;-79
2023/04/25 08:51:31;;;;;;;47.65;16.08;;;7.70;99.90;;;6.61;100.00;96799.09;5028167;28;20401;-79
2023/04/25 08:54:08;;;;;;;37.17;15.90;;;7.60;99.90;;;6.69;100.00;96801.31;5019140;28;20411;-79
2023/04/25 08:56:34;;;;;;;49.80;16.83;;;7.60;99.90;;;6.74;100.00;96809.28;5021759;28;20504;-79
2023/04/25 08:59:01;;;;;;;47.20;16.77;;;7.70;99.90;;;6.79;100.00;96808.56;5019755;28;20405;-79
2023/04/25 09:01:29;;;;;;;65.63;18.27;;;7.80;99.90;;;6.82;100.00;96806.25;5021956;28;20405;-77
2023/04/25 09:03:56;;;;;;;50.40;17.38;;;7.80;99.90;;;6.77;100.00;96814.06;5014499;28;20426;-78
2023/04/25 09:06:24;;;;;;;48.28;15.80;;;7.70;99.90;;;6.78;100.00;96818.28;5013155;28;20776;-79
2023/04/25 09:08:50;;;;;;;60.10;17.63;;;7.80;99.90;;;6.74;100.00;96813.75;5012539;28;20421;-79
2023/04/25 09:11:16;;;;;;;61.55;17.73;;;7.70;99.90;;;6.77;100.00;96821.94;5011213;28;20844;-78
2023/04/25 09:13:42;;;;;;;55.75;17.42;;;7.70;99.90;;;6.83;100.00;96825.47;5019467;28;20463;-78
2023/04/25 09:16:08;;;;;;;62.53;18.13;;;7.80;99.90;;;6.86;100.00;96824.97;5023159;28;20490;-78
2023/04/25 09:18:36;;;;;;;54.05;17.00;;;7.80;99.90;;;6.78;100.00;96834.06;5018654;28;20579;-79
2023/04/25 09:21:07;;;;;;;57.55;17.92;;;7.70;99.90;;;6.82;100.00;96827.31;5018177;28;20401;-78
2023/04/25 09:23:40;;;;;;;60.33;18.07;;;7.80;99.90;;;6.84;100.00;96840.22;5021743;28;20989;-78
2023/04/25 09:26:07;;;;;;;59.17;19.10;;;7.80;99.90;;;6.85;100.00;96845.22;5023331;28;20479;-78
2023/04/25 12:38:37;;;;;;;59.78;17.70;;;8.30;99.90;;;7.56;100.00;97021.88;5546429;23;20852;-78
2023/04/25 12:41:03;;;;;;;52.63;15.68;;;8.50;99.90;;;7.60;100.00;97036.94;4944043;28;20455;-77
2023/04/25 12:43:29;;;;;;;65.72;18.55;;;8.50;99.90;;;7.80;100.00;97030.41;4939560;29;20435;-79
2023/04/25 12:45:56;;;;;;;40.45;15.07;;;8.70;99.90;;;7.98;100.00;97028.28;4944371;29;20426;-78
2023/04/25 12:48:23;;;;;;;48.97;14.57;;;8.90;99.90;;;8.05;100.00;97030.72;4948341;29;20868;-79
2023/04/25 12:50:51;;;;;;;41.67;14.63;;;9.00;99.90;;;8.29;100.00;97033.94;4944766;28;20435;-78
2023/04/25 12:53:18;;;;;;;35.45;13.45;;;9.20;99.90;;;8.32;100.00;97031.66;4945695;29;20426;-78
2023/04/25 12:55:46;;;;;;;25.35;11.25;;;9.20;99.90;;;8.47;100.00;97037.13;4946543;29;20421;-78
2023/04/25 12:58:12;;;;;;;34.00;11.40;;;9.30;99.90;;;8.58;100.00;97038.03;4949696;28;20952;-78
2023/04/25 13:00:38;;;;;;;31.33;10.57;;;9.50;99.90;;;8.72;100.00;97038.47;4939300;29;20519;-78
2023/04/25 13:03:04;;;;;;;23.92;10.82;;;9.60;99.90;;;8.81;100.00;97042.22;4943109;29;20900;-78
2023/04/25 13:05:30;;;;;;;21.40;9.60;;;9.70;99.90;;;8.93;100.00;97041.06;4942633;28;20514;-77
2023/04/25 13:07:56;;;;;;;30.88;10.57;;;9.70;99.90;;;9.41;100.00;97044.66;4944689;28;20427;-77
2023/04/25 13:10:23;;;;;;;16.27;8.98;;;10.20;99.90;;;10.05;100.00;97044.59;4939153;29;20930;-77
2023/04/25 13:12:50;;;;;;;10.48;6.85;;;10.60;99.90;;;10.72;100.00;97047.31;4944912;29;20422;-77
2023/04/25 13:15:16;;;;;;;9.15;6.90;;;11.20;99.90;;;10.78;100.00;97033.03;4941441;29;20517;-76
2023/04/25 13:17:42;;;;;;;7.82;6.38;;;11.60;99.90;;;10.83;100.00;97038.34;4938131;29;20429;-76
2023/04/25 13:20:09;;;;;;;9.18;7.05;;;11.60;99.90;;;10.75;100.00;97038.09;4938048;28;20433;-78
2023/04/25 13:22:36;;;;;;;13.02;7.45;;;11.60;99.90;;;10.55;100.00;97038.00;4937895;29;20458;-78
2023/04/25 13:25:03;;;;;;;13.10;8.18;;;11.40;99.90;;;10.53;100.00;97040.88;4938384;29;20419;-77
2023/04/25 13:27:30;;;;;;;18.02;9.05;;;11.30;99.90;;;10.52;100.00;97036.69;4945406;28;20415;-77
2023/04/25 13:29:57;;;;;;;19.92;11.63;;;11.30;99.90;;;10.66;100.00;97043.06;4939615;29;20434;-76